Time;durP1;ratioP1;P1;durP2;ratioP2;P2;SDS_P1;SDS_P2;PMS_P1;PMS_P2;Temp;Humidity;BMP_temperature;BMP_pressure;BME280_temperature;BME280_humidity;BME280_pressure;Samples;Min_cycle;Max_cycle;Signal;HPM_P1;HPM_P2
2023/12/16 08:58:39;;;;;;;26.48;20.75;;;4.80;99.90;;;;;;5070654;28;20372;-66
2023/12/16 09:01:06;;;;;;;25.10;20.20;;;4.90;99.90;;;;;;5070262;28;20029;-67
2023/12/16 09:03:31;;;;;;;36.88;27.63;;;5.20;99.90;;;;;;5070519;28;20024;-67
2023/12/16 09:05:57;;;;;;;24.52;20.80;;;5.80;99.90;;;;;;5070533;28;20432;-65
2023/12/16 09:08:23;;;;;;;26.70;21.40;;;6.60;98.60;;;;;;5070373;28;20479;-64
2023/12/16 09:10:48;;;;;;;25.92;21.15;;;7.20;94.60;;;;;;5069124;28;20028;-66
2023/12/16 09:13:14;;;;;;;31.60;24.60;;;7.70;91.60;;;;;;5070402;28;20143;-70
2023/12/16 09:15:40;;;;;;;23.95;19.77;;;8.50;84.70;;;;;;5070086;28;20115;-65
2023/12/16 09:18:06;;;;;;;25.42;20.73;;;9.00;74.90;;;;;;5070166;28;20064;-62
2023/12/16 09:20:31;;;;;;;21.17;17.75;;;9.40;68.40;;;;;;5070205;28;20079;-66
2023/12/16 09:22:59;;;;;;;18.10;15.70;;;9.70;66.90;;;;;;5070133;28;20021;-65
2023/12/16 09:25:24;;;;;;;19.52;16.17;;;9.70;59.30;;;;;;5070547;28;20103;-68
2023/12/16 09:27:50;;;;;;;16.23;14.40;;;9.40;60.00;;;;;;5070035;28;20398;-65
2023/12/16 09:30:18;;;;;;;15.20;13.45;;;9.20;60.40;;;;;;5069777;28;20021;-66
2023/12/16 09:32:46;;;;;;;15.77;13.88;;;9.40;59.90;;;;;;5070101;28;20367;-67
2023/12/16 09:35:12;;;;;;;29.40;23.35;;;9.70;60.10;;;;;;5069891;28;20406;-68
2023/12/16 09:37:38;;;;;;;21.88;18.92;;;10.10;56.60;;;;;;5069861;28;20043;-64
2023/12/16 09:40:04;;;;;;;19.60;15.82;;;10.20;56.70;;;;;;5069624;28;20024;-65
2023/12/16 09:42:31;;;;;;;17.20;15.40;;;10.60;55.60;;;;;;5069704;28;20466;-62
2023/12/16 09:44:59;;;;;;;22.20;18.35;;;10.80;53.30;;;;;;5069530;28;20013;-65
2023/12/16 09:47:25;;;;;;;16.38;14.63;;;11.10;52.70;;;;;;5069594;28;20032;-67
2023/12/16 09:49:53;;;;;;;13.38;11.90;;;11.30;53.40;;;;;;5069483;28;20024;-59
2023/12/16 09:52:19;;;;;;;12.85;11.65;;;11.50;50.40;;;;;;5069532;28;20063;-64
2023/12/16 09:54:44;;;;;;;9.98;8.98;;;11.60;50.50;;;;;;5069420;28;20432;-66
2023/12/16 09:57:13;;;;;;;8.98;8.18;;;11.50;49.60;;;;;;5069320;28;20391;-65
2023/12/16 09:59:41;;;;;;;9.30;8.32;;;11.00;49.10;;;;;;5069185;28;20025;-70
2023/12/16 10:02:14;;;;;;;12.63;11.27;;;10.50;50.00;;;;;;5069196;28;20023;-64
2023/12/16 10:04:40;;;;;;;;;;;10.00;50.10;;;;;;5069682;28;20017;-62
2023/12/16 10:07:08;;;;;;;13.02;11.65;;;9.50;52.00;;;;;;5069244;28;19904;-66
2023/12/16 10:09:34;;;;;;;10.43;9.40;;;9.20;54.20;;;;;;5058213;28;20028;-68
2023/12/16 10:12:00;;;;;;;15.25;13.20;;;9.00;55.20;;;;;;5054679;28;20437;-67
2023/12/16 10:14:26;;;;;;;16.60;12.57;;;8.70;55.60;;;;;;5055730;28;20017;-62
2023/12/16 10:17:02;;;;;;;20.40;15.10;;;8.60;55.30;;;;;;5054541;28;20474;-66
2023/12/16 10:19:28;;;;;;;14.60;12.65;;;8.40;56.50;;;;;;5055789;28;20239;-67
2023/12/16 10:21:54;;;;;;;11.40;9.90;;;8.50;57.40;;;;;;5055708;28;20112;-66
2023/12/16 10:24:19;;;;;;;10.32;9.23;;;8.70;55.50;;;;;;5055745;28;20021;-69
2023/12/16 10:26:45;;;;;;;11.65;9.45;;;8.50;53.90;;;;;;5055589;28;20024;-63
2023/12/16 10:29:11;;;;;;;9.13;8.23;;;8.30;57.10;;;;;;5055685;28;20049;-65
2023/12/16 10:31:38;;;;;;;12.73;10.02;;;8.20;56.60;;;;;;5055464;28;20021;-69
2023/12/16 10:34:04;;;;;;;10.25;8.85;;;8.20;55.60;;;;;;5055504;28;20021;-66
2023/12/16 10:36:30;;;;;;;10.63;9.48;;;8.20;58.30;;;;;;5055362;28;20433;-61
2023/12/16 10:38:59;;;;;;;10.63;9.32;;;8.50;56.60;;;;;;5055329;28;20096;-61
2023/12/16 10:41:25;;;;;;;9.90;8.90;;;8.70;58.50;;;;;;5055278;28;20021;-63
2023/12/16 10:43:50;;;;;;;7.32;6.35;;;9.20;59.00;;;;;;5055285;28;20021;-64
2023/12/16 10:46:17;;;;;;;6.30;5.70;;;9.50;55.30;;;;;;5055260;28;20075;-66
2023/12/16 10:48:47;;;;;;;6.50;5.88;;;9.50;54.30;;;;;;5055418;28;20023;-64
2023/12/16 10:51:15;;;;;;;5.65;5.15;;;9.40;56.10;;;;;;5055273;28;20024;-60
2023/12/16 10:54:13;;;;;;;5.85;5.25;;;9.40;56.70;;;;;;5055054;28;20078;-68
2023/12/16 10:56:48;;;;;;;4.75;4.35;;;9.70;54.90;;;;;;5054522;28;20053;-67
2023/12/16 10:59:22;;;;;;;5.32;4.82;;;9.80;54.00;;;;;;5055196;28;20024;-62
2023/12/16 11:01:56;;;;;;;5.80;5.30;;;10.20;52.00;;;;;;5055063;28;20028;-66
2023/12/16 11:04:24;;;;;;;5.95;5.45;;;10.50;53.20;;;;;;5054967;28;20021;-69
2023/12/16 11:07:09;;;;;;;5.40;4.90;;;10.50;51.60;;;;;;5055045;28;20107;-61
2023/12/16 11:09:35;;;;;;;6.95;6.25;;;10.50;51.00;;;;;;5054875;28;20063;-68
2023/12/16 11:12:02;;;;;;;6.50;5.90;;;10.30;51.40;;;;;;5054729;28;20021;-64
2023/12/16 11:14:29;;;;;;;7.43;6.63;;;10.10;51.50;;;;;;5054817;28;20025;-64
2023/12/16 11:16:58;;;;;;;6.20;5.63;;;9.80;53.60;;;;;;5053411;28;20059;-63
2023/12/16 11:19:33;;;;;;;8.43;7.30;;;9.70;53.50;;;;;;5054607;28;20497;-61
2023/12/16 11:22:00;;;;;;;6.38;5.78;;;9.60;54.20;;;;;;5053926;28;20017;-67
2023/12/16 11:24:25;;;;;;;5.53;4.95;;;9.30;54.60;;;;;;5054708;28;20505;-68
2023/12/16 11:26:55;;;;;;;7.90;7.20;;;9.40;56.10;;;;;;5054411;28;20021;-63
2023/12/16 11:29:24;;;;;;;7.57;6.25;;;9.60;54.60;;;;;;5054351;28;20030;-63
2023/12/16 11:31:57;;;;;;;7.63;6.85;;;9.80;54.40;;;;;;5054519;28;20029;-62
2023/12/16 11:34:38;;;;;;;8.85;7.03;;;10.10;54.10;;;;;;5054446;28;20017;-69
2023/12/16 11:37:04;;;;;;;6.70;6.10;;;10.20;52.20;;;;;;5054322;28;20383;-66
2023/12/16 11:39:41;;;;;;;7.72;6.93;;;10.20;50.90;;;;;;5054190;28;20025;-66
2023/12/16 11:42:10;;;;;;;7.22;6.63;;;10.10;52.10;;;;;;5054119;28;20028;-66
2023/12/16 11:45:08;;;;;;;6.78;6.18;;;10.10;52.30;;;;;;5054159;28;20556;-64
2023/12/16 11:47:33;;;;;;;5.50;5.00;;;10.60;49.10;;;;;;5053222;28;20040;-63
2023/12/16 11:49:59;;;;;;;6.00;5.45;;;10.90;47.30;;;;;;5054117;28;20021;-65
2023/12/16 11:52:27;;;;;;;4.25;3.95;;;11.20;48.10;;;;;;5053928;28;20032;-63
2023/12/16 11:54:56;;;;;;;4.43;4.03;;;11.40;44.90;;;;;;5053792;28;20036;-64
2023/12/16 11:57:26;;;;;;;4.63;4.22;;;11.60;44.50;;;;;;5053643;28;20049;-63
2023/12/16 11:59:54;;;;;;;3.90;3.50;;;11.70;44.00;;;;;;5053832;28;20025;-64
2023/12/16 12:02:20;;;;;;;3.30;3.10;;;11.80;42.30;;;;;;5053979;28;20067;-67
2023/12/16 12:04:47;;;;;;;3.20;2.92;;;11.90;43.40;;;;;;5053838;28;20017;-65
2023/12/16 12:07:14;;;;;;;4.40;4.00;;;12.10;42.80;;;;;;5053578;28;20029;-62
2023/12/16 12:09:43;;;;;;;3.90;3.60;;;12.30;43.70;;;;;;5052307;28;20025;-68
2023/12/16 12:12:10;;;;;;;5.85;5.35;;;12.40;41.70;;;;;;5053689;28;20021;-65
2023/12/16 12:14:38;;;;;;;5.85;5.35;;;12.20;44.20;;;;;;5053557;28;20066;-68
2023/12/16 12:17:05;;;;;;;7.00;6.40;;;12.00;45.50;;;;;;5053756;28;20047;-69
2023/12/16 12:19:31;;;;;;;6.03;5.53;;;12.20;45.60;;;;;;5053561;28;20463;-64
2023/12/16 12:21:56;;;;;;;4.10;3.80;;;12.40;45.10;;;;;;5053262;28;20100;-63
2023/12/16 12:24:22;;;;;;;2.60;2.40;;;12.10;40.90;;;;;;5052171;28;20031;-68
2023/12/16 12:26:48;;;;;;;2.35;2.15;;;12.10;41.00;;;;;;5053268;28;20094;-63
2023/12/16 12:29:14;;;;;;;2.10;2.00;;;12.20;40.70;;;;;;5053228;28;20028;-63
2023/12/16 12:31:45;;;;;;;2.45;2.25;;;12.00;40.70;;;;;;5053017;28;20024;-67
2023/12/16 12:34:17;;;;;;;1.50;1.40;;;11.70;39.50;;;;;;5052134;28;20081;-66
2023/12/16 12:36:43;;;;;;;1.77;1.67;;;11.80;42.10;;;;;;5052571;28;20116;-64
2023/12/16 12:39:15;;;;;;;2.22;2.00;;;11.90;39.90;;;;;;5051641;28;20029;-66
2023/12/16 12:41:41;;;;;;;2.53;2.33;;;12.20;40.30;;;;;;5052865;28;20064;-60
2023/12/16 12:44:11;;;;;;;2.78;2.58;;;12.40;40.60;;;;;;5052881;28;20044;-65
2023/12/16 12:46:47;;;;;;;2.00;1.90;;;12.50;40.50;;;;;;5053142;28;20039;-63
2023/12/16 12:49:13;;;;;;;1.90;1.80;;;12.60;38.00;;;;;;5053150;28;20475;-64
2023/12/16 12:51:52;;;;;;;2.50;2.03;;;12.60;37.30;;;;;;5053478;28;20024;-62
2023/12/16 12:54:20;;;;;;;1.90;1.67;;;12.50;37.50;;;;;;5053262;28;20033;-64
2023/12/16 12:56:49;;;;;;;1.70;1.60;;;12.50;37.80;;;;;;5052721;28;20490;-64
2023/12/16 12:59:15;;;;;;;1.15;1.05;;;12.60;37.30;;;;;;5051861;28;20113;-65
2023/12/16 13:01:41;;;;;;;1.38;1.27;;;12.70;37.30;;;;;;5053031;28;20100;-69
2023/12/16 13:04:07;;;;;;;1.38;1.27;;;12.80;36.80;;;;;;5051862;28;20044;-62
2023/12/16 13:06:33;;;;;;;0.98;0.98;;;12.70;36.00;;;;;;5052864;28;20074;-63
2023/12/16 13:08:58;;;;;;;2.35;2.15;;;12.60;37.20;;;;;;5052926;28;20539;-65
2023/12/16 13:11:24;;;;;;;1.52;1.42;;;12.40;36.70;;;;;;5052947;28;20021;-64
2023/12/16 13:13:50;;;;;;;1.83;1.73;;;11.80;37.70;;;;;;5052996;28;20078;-63
2023/12/16 13:16:15;;;;;;;2.28;2.08;;;11.90;37.90;;;;;;5052982;28;20017;-68
2023/12/16 13:18:42;;;;;;;2.10;1.90;;;11.80;38.10;;;;;;5052856;28;20052;-61
2023/12/16 13:21:11;;;;;;;1.90;1.80;;;11.70;38.30;;;;;;5052648;28;20451;-68
2023/12/16 13:23:37;;;;;;;1.60;1.50;;;11.60;39.00;;;;;;5052894;28;20071;-64
2023/12/16 13:26:10;;;;;;;3.15;2.20;;;11.70;40.90;;;;;;5052840;28;20028;-67
2023/12/16 13:28:36;;;;;;;2.10;1.90;;;11.70;39.60;;;;;;5052873;28;20025;-68
2023/12/16 13:31:02;;;;;;;1.60;1.50;;;11.60;40.60;;;;;;5052741;28;20025;-61
2023/12/16 13:33:28;;;;;;;1.65;1.55;;;11.40;39.30;;;;;;5052758;28;20552;-65
2023/12/16 13:35:54;;;;;;;1.92;1.73;;;11.30;40.60;;;;;;5052538;28;20021;-64
2023/12/16 13:38:20;;;;;;;1.88;1.77;;;11.20;40.30;;;;;;5052829;28;20027;-65
2023/12/16 13:40:46;;;;;;;1.85;1.75;;;10.90;40.60;;;;;;5052759;28;20021;-71
2023/12/16 13:43:12;;;;;;;2.03;1.92;;;10.70;39.90;;;;;;5052823;28;20029;-61
2023/12/16 13:45:38;;;;;;;1.70;1.60;;;10.60;41.50;;;;;;5056638;28;20028;-66
2023/12/16 13:48:03;;;;;;;1.90;1.80;;;10.70;41.80;;;;;;5056451;28;20033;-64
2023/12/16 13:50:29;;;;;;;3.17;2.17;;;10.70;41.90;;;;;;5056056;28;20017;-69
2023/12/16 13:52:55;;;;;;;2.13;1.58;;;10.60;42.60;;;;;;5056441;28;20491;-62
2023/12/16 13:55:21;;;;;;;2.60;2.40;;;10.50;41.00;;;;;;5056275;28;20387;-65
2023/12/16 13:57:46;;;;;;;2.63;2.42;;;10.50;42.50;;;;;;5055907;28;20037;-63
2023/12/16 14:00:12;;;;;;;2.15;1.95;;;10.40;43.50;;;;;;5056336;28;20471;-72
2023/12/16 14:02:38;;;;;;;2.15;1.98;;;10.40;43.10;;;;;;5056712;28;20071;-69
2023/12/16 14:05:05;;;;;;;3.40;3.10;;;10.40;43.30;;;;;;5055809;28;20092;-68
2023/12/16 14:07:31;;;;;;;3.00;2.70;;;10.30;42.60;;;;;;5056072;28;20114;-67
2023/12/16 14:09:58;;;;;;;3.72;3.42;;;10.10;44.00;;;;;;5056055;28;20020;-65
2023/12/16 14:12:23;;;;;;;3.72;3.33;;;10.10;44.50;;;;;;5056025;28;20414;-67
2023/12/16 14:14:49;;;;;;;3.67;3.38;;;10.00;44.50;;;;;;5055902;28;20090;-68
2023/12/16 14:17:15;;;;;;;3.42;3.13;;;10.00;45.10;;;;;;5056134;28;20029;-68
2023/12/16 14:19:41;;;;;;;4.35;3.95;;;9.90;44.00;;;;;;5055736;28;20033;-64
2023/12/16 14:22:08;;;;;;;3.67;3.38;;;9.90;44.10;;;;;;5055786;28;20025;-70
2023/12/16 14:24:33;;;;;;;3.55;3.25;;;9.70;45.00;;;;;;5055776;28;20024;-65
2023/12/16 14:27:00;;;;;;;3.70;3.38;;;9.70;44.90;;;;;;5055593;28;20382;-65
2023/12/16 14:29:28;;;;;;;3.67;3.20;;;9.60;45.60;;;;;;5055647;28;20025;-66
2023/12/16 14:31:54;;;;;;;3.03;2.80;;;9.50;45.50;;;;;;5055611;28;20032;-69
2023/12/16 14:34:21;;;;;;;3.25;2.95;;;9.50;46.00;;;;;;5055602;28;20009;-66
2023/12/16 14:36:46;;;;;;;3.03;2.72;;;9.40;45.60;;;;;;5055507;28;20048;-65
2023/12/16 14:39:12;;;;;;;3.33;2.70;;;9.30;47.10;;;;;;5055538;28;20021;-63
2023/12/16 14:41:38;;;;;;;2.75;2.45;;;9.20;47.10;;;;;;5055500;28;20025;-63
2023/12/16 14:44:04;;;;;;;2.47;2.28;;;9.20;47.60;;;;;;5055420;28;20383;-63
2023/12/16 14:46:30;;;;;;;3.08;2.78;;;9.10;47.80;;;;;;5055547;28;20017;-70
2023/12/16 14:48:55;;;;;;;57.95;42.15;;;9.00;46.30;;;;;;5055123;28;20032;-65
2023/12/16 14:51:22;;;;;;;59.65;44.05;;;8.70;50.00;;;;;;5055156;28;20075;-65
2023/12/16 14:53:48;;;;;;;47.45;36.65;;;8.40;51.40;;;;;;5053908;28;20196;-67
2023/12/16 14:56:20;;;;;;;41.65;33.65;;;8.30;51.90;;;;;;5054776;28;20445;-68
2023/12/16 14:58:49;;;;;;;56.13;42.65;;;8.20;52.50;;;;;;5055022;28;20029;-68
2023/12/16 15:01:22;;;;;;;55.97;42.83;;;8.00;53.10;;;;;;5055071;28;20025;-66
2023/12/16 15:03:48;;;;;;;57.75;44.85;;;7.70;54.30;;;;;;5055020;28;20021;-64
2023/12/16 15:06:13;;;;;;;80.28;58.28;;;7.40;55.80;;;;;;5055005;28;20475;-65
2023/12/16 15:08:39;;;;;;;62.67;48.33;;;7.20;58.10;;;;;;5054836;28;20471;-69
2023/12/16 15:11:05;;;;;;;53.95;40.13;;;6.90;61.20;;;;;;5054904;28;20498;-67
2023/12/16 15:13:31;;;;;;;60.70;45.72;;;6.90;60.90;;;;;;5053523;28;20031;-60
2023/12/16 15:15:56;;;;;;;50.90;39.20;;;6.90;62.60;;;;;;5054930;28;20095;-69
2023/12/16 15:18:22;;;;;;;56.20;43.05;;;6.70;64.10;;;;;;5053211;28;20033;-65
2023/12/16 15:20:48;;;;;;;46.15;35.10;;;6.50;65.80;;;;;;5054739;28;20021;-65
2023/12/16 15:23:13;;;;;;;51.80;38.97;;;6.50;64.80;;;;;;5054626;28;20059;-66
2023/12/16 15:25:39;;;;;;;48.85;36.85;;;6.50;67.70;;;;;;5054551;28;20017;-65
2023/12/16 15:28:05;;;;;;;50.35;41.30;;;6.40;69.00;;;;;;5054462;28;20082;-70
2023/12/16 15:30:30;;;;;;;56.28;48.55;;;6.30;72.50;;;;;;5054440;28;20451;-67
2023/12/16 15:32:56;;;;;;;51.65;42.38;;;6.20;75.60;;;;;;5054322;28;20025;-65
2023/12/16 15:35:22;;;;;;;52.25;43.47;;;6.10;75.60;;;;;;5054505;28;20021;-67
2023/12/16 15:37:47;;;;;;;59.70;46.30;;;6.00;77.00;;;;;;5054369;28;20055;-65
2023/12/16 15:40:13;;;;;;;41.15;32.17;;;5.90;79.90;;;;;;5054340;28;20021;-66
2023/12/16 15:42:39;;;;;;;64.32;50.78;;;5.90;76.40;;;;;;5054237;28;20021;-61
2023/12/16 15:45:05;;;;;;;46.30;36.45;;;5.90;80.80;;;;;;5054236;28;20025;-66
2023/12/16 15:47:31;;;;;;;37.13;29.60;;;6.00;76.90;;;;;;5053836;28;20036;-66
2023/12/16 15:49:58;;;;;;;42.55;32.83;;;6.00;74.10;;;;;;5054351;28;20021;-64
2023/12/16 15:52:24;;;;;;;39.72;31.30;;;6.00;74.40;;;;;;5054038;28;20021;-66
2023/12/16 15:54:50;;;;;;;44.25;35.33;;;6.00;76.30;;;;;;5054063;28;20028;-69
2023/12/16 15:57:15;;;;;;;53.60;41.25;;;6.20;76.90;;;;;;5053709;28;20056;-65
2023/12/16 15:59:41;;;;;;;99.82;65.55;;;6.20;77.00;;;;;;5053979;28;20025;-63
2023/12/16 16:02:07;;;;;;;80.75;57.45;;;6.20;79.40;;;;;;5053541;28;20028;-63
2023/12/16 16:04:33;;;;;;;100.88;67.03;;;6.30;80.20;;;;;;5053851;28;20387;-64
2023/12/16 16:06:58;;;;;;;123.22;76.88;;;6.30;82.00;;;;;;5053251;28;20186;-65
2023/12/16 16:09:24;;;;;;;125.72;81.60;;;6.30;83.60;;;;;;5053649;28;20467;-69
2023/12/16 16:11:50;;;;;;;144.38;97.47;;;6.30;82.60;;;;;;5053643;28;20086;-68
2023/12/16 16:14:15;;;;;;;166.48;123.00;;;6.30;83.40;;;;;;5053713;28;20028;-63
2023/12/16 16:16:41;;;;;;;133.13;97.53;;;6.30;83.50;;;;;;5053408;28;20104;-67
2023/12/16 16:19:07;;;;;;;132.32;99.60;;;6.30;84.80;;;;;;5053789;28;20489;-65
2023/12/16 16:21:34;;;;;;;129.15;98.63;;;6.20;86.20;;;;;;5053713;28;20025;-66
2023/12/16 16:24:00;;;;;;;97.38;73.85;;;6.20;84.50;;;;;;5053583;28;20017;-63
2023/12/16 16:26:26;;;;;;;76.05;59.63;;;6.20;85.70;;;;;;5053472;28;20017;-62
2023/12/16 16:28:52;;;;;;;72.28;59.67;;;6.10;86.30;;;;;;5053620;28;20070;-65
2023/12/16 16:31:22;;;;;;;62.25;51.95;;;6.00;89.10;;;;;;5053272;28;20383;-65
2023/12/16 16:33:48;;;;;;;59.85;48.13;;;6.00;89.80;;;;;;5053536;28;20028;-64
2023/12/16 16:36:14;;;;;;;49.63;43.67;;;6.00;88.60;;;;;;5053362;28;20017;-65
2023/12/16 16:38:40;;;;;;;44.47;37.70;;;6.00;87.60;;;;;;5053375;28;20029;-68
2023/12/16 16:41:06;;;;;;;43.33;36.65;;;6.00;85.70;;;;;;5053211;28;20079;-62
2023/12/16 16:43:32;;;;;;;43.55;37.22;;;5.80;87.80;;;;;;5053252;28;20075;-65
2023/12/16 16:45:57;;;;;;;36.40;31.10;;;5.70;89.90;;;;;;5053121;28;20045;-62
2023/12/16 16:48:23;;;;;;;41.78;35.92;;;5.70;90.40;;;;;;5053034;28;20035;-66
2023/12/16 16:50:49;;;;;;;41.20;35.40;;;5.80;87.90;;;;;;5053314;28;20108;-66
2023/12/16 16:53:18;;;;;;;38.28;33.33;;;5.60;89.00;;;;;;5053216;28;20076;-69
2023/12/16 16:55:44;;;;;;;38.78;33.58;;;5.30;91.00;;;;;;5053149;28;20017;-63
2023/12/16 16:58:10;;;;;;;59.30;48.47;;;5.20;91.50;;;;;;5052644;28;20063;-62
2023/12/16 17:00:38;;;;;;;57.97;48.03;;;5.20;91.90;;;;;;5053181;28;20079;-64
2023/12/16 17:03:05;;;;;;;49.20;40.85;;;5.00;92.50;;;;;;5051755;28;20021;-66
2023/12/16 17:05:32;;;;;;;67.22;49.22;;;5.00;92.80;;;;;;5053115;28;20044;-65
2023/12/16 17:07:58;;;;;;;67.25;47.83;;;5.00;92.20;;;;;;5052981;28;20390;-63
2023/12/16 17:10:24;;;;;;;63.20;44.95;;;5.00;92.30;;;;;;5053097;28;20020;-61
2023/12/16 17:12:50;;;;;;;63.58;46.40;;;4.90;92.80;;;;;;5052951;28;20021;-65
2023/12/16 17:15:16;;;;;;;74.35;49.35;;;4.90;92.50;;;;;;5053131;28;20378;-62
2023/12/16 17:17:42;;;;;;;64.93;46.17;;;4.90;93.30;;;;;;5052972;28;20028;-71
2023/12/16 17:20:11;;;;;;;59.13;43.88;;;4.70;93.50;;;;;;5056504;28;20487;-65
2023/12/16 17:22:41;;;;;;;82.28;54.05;;;4.80;93.20;;;;;;5056976;28;20021;-63
2023/12/16 17:25:08;;;;;;;79.25;53.42;;;4.80;93.60;;;;;;5056804;28;20444;-69
2023/12/16 17:27:34;;;;;;;84.57;57.63;;;4.60;94.20;;;;;;5056658;28;20487;-65
2023/12/16 17:29:59;;;;;;;80.47;57.88;;;4.60;95.10;;;;;;5056872;28;20021;-65
2023/12/16 17:32:28;;;;;;;85.72;61.45;;;4.40;95.70;;;;;;5056645;28;20025;-68
2023/12/16 17:34:53;;;;;;;78.43;56.13;;;4.40;96.90;;;;;;5056802;28;20086;-66
2023/12/16 17:37:19;;;;;;;76.28;54.78;;;4.30;97.00;;;;;;5056717;28;20041;-71
2023/12/16 17:39:45;;;;;;;72.63;53.22;;;4.30;97.20;;;;;;5056480;28;20025;-64
2023/12/16 17:42:10;;;;;;;91.65;65.78;;;4.40;97.10;;;;;;5056404;28;20158;-64
2023/12/16 17:44:36;;;;;;;88.57;64.45;;;4.30;97.50;;;;;;5056538;28;20491;-63
2023/12/16 17:47:02;;;;;;;87.78;63.05;;;4.20;97.80;;;;;;5056433;28;20029;-68
2023/12/16 17:49:28;;;;;;;76.72;57.72;;;4.10;98.50;;;;;;5056661;28;20017;-63
2023/12/16 17:51:55;;;;;;;70.88;55.25;;;4.10;98.60;;;;;;5056414;28;20018;-63
2023/12/16 17:54:21;;;;;;;77.22;59.50;;;4.00;98.80;;;;;;5056369;28;20092;-68
2023/12/16 17:56:46;;;;;;;79.90;58.20;;;4.00;99.00;;;;;;5055754;28;20050;-67
2023/12/16 17:59:13;;;;;;;75.10;55.85;;;3.90;99.40;;;;;;5056223;28;20386;-64
2023/12/16 18:01:40;;;;;;;77.70;59.05;;;4.00;99.40;;;;;;5056237;28;20028;-65
2023/12/16 18:04:08;;;;;;;74.25;56.38;;;4.00;99.20;;;;;;5056154;28;20028;-66
2023/12/16 18:06:34;;;;;;;72.57;55.13;;;4.00;99.30;;;;;;5056044;28;20079;-62
2023/12/16 18:09:01;;;;;;;69.78;55.75;;;3.90;99.50;;;;;;5054818;28;20028;-62
2023/12/16 18:11:26;;;;;;;67.32;53.75;;;3.90;99.30;;;;;;5055752;28;20021;-67
2023/12/16 18:13:52;;;;;;;53.88;43.28;;;3.90;99.40;;;;;;5056017;28;20100;-66
2023/12/16 18:16:18;;;;;;;58.28;44.88;;;3.90;99.40;;;;;;5055946;28;20494;-63
2023/12/16 18:18:43;;;;;;;61.53;45.92;;;3.90;99.20;;;;;;5055818;28;20025;-64
2023/12/16 18:21:09;;;;;;;54.78;42.25;;;4.00;99.00;;;;;;5056021;28;20485;-62
2023/12/16 18:23:36;;;;;;;49.45;39.28;;;4.00;99.20;;;;;;5055840;28;20364;-64
2023/12/16 18:26:03;;;;;;;62.95;48.30;;;4.00;98.80;;;;;;5055631;28;20068;-69
2023/12/16 18:28:32;;;;;;;56.10;45.00;;;4.00;98.70;;;;;;5055757;28;20033;-66
2023/12/16 18:30:58;;;;;;;48.70;38.47;;;3.90;99.00;;;;;;5055172;28;20096;-68
2023/12/16 18:33:24;;;;;;;40.72;33.03;;;3.90;98.70;;;;;;5055547;28;20092;-63
2023/12/16 18:35:50;;;;;;;43.53;35.42;;;4.00;99.00;;;;;;5055846;28;20459;-69
2023/12/16 18:38:16;;;;;;;40.28;32.55;;;4.00;98.20;;;;;;5055568;28;20127;-67
2023/12/16 18:40:42;;;;;;;35.95;29.52;;;4.00;98.20;;;;;;5055315;28;20390;-63
2023/12/16 18:43:08;;;;;;;42.97;34.08;;;4.00;98.10;;;;;;5055372;28;20025;-59
2023/12/16 18:45:36;;;;;;;32.90;26.67;;;4.00;97.40;;;;;;5055502;28;20483;-65
2023/12/16 18:48:01;;;;;;;34.25;27.67;;;4.00;97.50;;;;;;5055266;28;20033;-64
2023/12/16 18:50:27;;;;;;;28.65;22.45;;;3.90;96.80;;;;;;5055275;28;20027;-65
2023/12/16 18:52:53;;;;;;;26.73;21.60;;;3.90;97.00;;;;;;5055451;28;20052;-63
2023/12/16 18:55:19;;;;;;;26.25;19.33;;;4.00;96.60;;;;;;5055068;28;20048;-63
2023/12/16 18:57:45;;;;;;;26.88;20.48;;;4.00;96.30;;;;;;5054884;28;20118;-64
2023/12/16 19:00:14;;;;;;;24.83;19.48;;;4.10;96.40;;;;;;5055155;28;20425;-60
2023/12/16 19:02:39;;;;;;;31.77;22.52;;;4.10;96.20;;;;;;5055217;28;20547;-67
2023/12/16 19:05:05;;;;;;;31.70;23.63;;;4.10;95.60;;;;;;5055033;28;20096;-63
2023/12/16 19:07:31;;;;;;;32.08;22.55;;;4.10;95.90;;;;;;5055176;28;20061;-64
2023/12/16 19:09:57;;;;;;;31.52;23.77;;;4.10;96.00;;;;;;5054810;28;20025;-64
2023/12/16 19:12:23;;;;;;;36.33;25.70;;;4.00;96.00;;;;;;5054780;28;20071;-66
2023/12/16 19:14:49;;;;;;;47.22;33.40;;;4.00;96.10;;;;;;5054778;28;20112;-62
2023/12/16 19:17:14;;;;;;;38.25;27.45;;;4.00;96.40;;;;;;5054816;28;20187;-64
2023/12/16 19:19:42;;;;;;;41.33;31.05;;;3.90;97.10;;;;;;5054731;28;20032;-65
2023/12/16 19:22:15;;;;;;;42.75;32.42;;;3.90;97.20;;;;;;5054691;28;20147;-68
2023/12/16 19:24:41;;;;;;;52.28;37.38;;;3.80;97.60;;;;;;5054559;28;20021;-65
2023/12/16 19:27:07;;;;;;;43.05;32.08;;;3.70;98.20;;;;;;5054490;28;20033;-62
2023/12/16 19:29:37;;;;;;;40.15;30.27;;;3.70;98.30;;;;;;5054700;28;20041;-61
2023/12/16 19:32:04;;;;;;;28.88;23.42;;;3.60;98.00;;;;;;5054612;28;20021;-64
2023/12/16 19:34:29;;;;;;;34.13;23.58;;;3.50;98.10;;;;;;5054424;28;20383;-67
2023/12/16 19:36:55;;;;;;;28.38;21.52;;;3.60;97.90;;;;;;5054423;28;20025;-62
2023/12/16 19:39:25;;;;;;;25.90;19.98;;;3.60;98.00;;;;;;5054249;28;20025;-65
2023/12/16 19:41:52;;;;;;;29.50;21.23;;;3.60;97.70;;;;;;5053510;28;20036;-65
2023/12/16 19:44:18;;;;;;;34.50;24.63;;;3.70;97.80;;;;;;5054279;28;20024;-67
2023/12/16 19:46:44;;;;;;;33.85;24.40;;;3.70;97.70;;;;;;5054167;28;20025;-60
2023/12/16 19:49:10;;;;;;;31.83;23.05;;;3.60;98.10;;;;;;5054104;28;20028;-68
2023/12/16 19:51:37;;;;;;;31.17;24.33;;;3.60;98.00;;;;;;5054108;28;20095;-66
2023/12/16 19:54:03;;;;;;;39.85;29.15;;;3.60;97.90;;;;;;5053968;28;20167;-63
2023/12/16 19:56:28;;;;;;;41.97;29.92;;;3.60;98.20;;;;;;5053811;28;20523;-63
2023/12/16 19:58:55;;;;;;;44.85;32.58;;;3.60;98.00;;;;;;5053951;28;20056;-67
2023/12/16 20:01:21;;;;;;;43.55;30.15;;;3.60;97.90;;;;;;5053966;28;20048;-65
2023/12/16 20:03:46;;;;;;;43.25;30.80;;;3.60;98.40;;;;;;5054445;28;20086;-64
2023/12/16 20:06:12;;;;;;;43.00;31.33;;;3.50;98.50;;;;;;5053814;28;20088;-65
2023/12/16 20:08:38;;;;;;;42.70;31.67;;;3.50;98.50;;;;;;5053573;28;20111;-64
2023/12/16 20:11:07;;;;;;;45.10;30.60;;;3.50;98.30;;;;;;5053870;28;20047;-67
2023/12/16 20:13:34;;;;;;;46.33;32.30;;;3.50;98.50;;;;;;5052479;28;20387;-64
2023/12/16 20:16:00;;;;;;;45.72;32.45;;;3.50;98.70;;;;;;5053758;28;20100;-70
2023/12/16 20:18:26;;;;;;;52.67;35.17;;;3.40;99.00;;;;;;5052327;28;20123;-67
2023/12/16 20:20:52;;;;;;;50.50;35.95;;;3.40;99.10;;;;;;5053630;28;20025;-61
2023/12/16 20:23:17;;;;;;;73.05;48.67;;;3.30;98.90;;;;;;5053417;28;20463;-63
2023/12/16 20:25:43;;;;;;;53.67;37.60;;;3.20;99.20;;;;;;5053831;28;20067;-63
2023/12/16 20:28:09;;;;;;;56.63;40.53;;;3.20;99.50;;;;;;5053428;28;20372;-60
2023/12/16 20:30:35;;;;;;;49.33;34.97;;;3.20;99.70;;;;;;5053476;28;20522;-64
2023/12/16 20:33:00;;;;;;;46.80;32.65;;;3.10;99.90;;;;;;5053464;28;20017;-66
2023/12/16 20:35:27;;;;;;;46.95;32.72;;;3.10;99.90;;;;;;5053777;28;20044;-65
2023/12/16 20:37:58;;;;;;;50.67;34.85;;;3.10;99.70;;;;;;5053087;28;20063;-67
2023/12/16 20:40:35;;;;;;;45.45;31.35;;;3.20;99.80;;;;;;5053515;28;20021;-65
2023/12/16 20:43:04;;;;;;;78.32;50.50;;;3.20;99.70;;;;;;5053288;28;20111;-64
2023/12/16 20:45:31;;;;;;;62.20;43.15;;;3.00;99.90;;;;;;5053282;28;20052;-64
2023/12/16 20:48:00;;;;;;;63.92;44.90;;;2.60;99.90;;;;;;5053270;28;20123;-67
2023/12/16 20:50:27;;;;;;;57.97;39.40;;;2.60;99.90;;;;;;5053022;28;20021;-63
2023/12/16 20:52:54;;;;;;;57.42;39.22;;;2.70;99.90;;;;;;5053381;28;20025;-62
2023/12/16 20:55:24;;;;;;;65.63;42.83;;;2.80;99.90;;;;;;5053201;28;20110;-59
2023/12/16 20:57:50;;;;;;;57.33;38.13;;;2.70;99.90;;;;;;5052756;28;20507;-66
2023/12/16 21:00:21;;;;;;;64.57;44.28;;;2.70;99.90;;;;;;5053186;28;20032;-67
2023/12/16 21:02:47;;;;;;;126.68;81.65;;;2.70;99.90;;;;;;5053154;28;20027;-68
2023/12/16 21:05:13;;;;;;;130.38;83.88;;;2.70;99.90;;;;;;5052840;28;20074;-63
2023/12/16 21:07:40;;;;;;;96.05;62.17;;;2.60;99.90;;;;;;5052972;28;20025;-68
2023/12/16 21:10:06;;;;;;;72.20;50.60;;;2.60;99.90;;;;;;5051875;28;20112;-69
2023/12/16 21:12:33;;;;;;;68.18;48.03;;;2.60;99.90;;;;;;5052912;28;20021;-65
2023/12/16 21:14:59;;;;;;;62.25;42.40;;;2.70;99.90;;;;;;5052977;28;20067;-67
2023/12/16 21:17:25;;;;;;;57.75;41.25;;;2.70;99.90;;;;;;5053047;28;20364;-69
2023/12/16 21:19:51;;;;;;;63.53;40.80;;;2.70;99.90;;;;;;5052683;28;20021;-66
2023/12/16 21:22:17;;;;;;;55.65;38.45;;;2.80;99.90;;;;;;5052847;28;20082;-66
2023/12/16 21:24:43;;;;;;;54.03;36.35;;;2.80;99.90;;;;;;5051653;28;20029;-65
2023/12/16 21:27:10;;;;;;;58.53;38.83;;;2.80;99.90;;;;;;5052738;28;20418;-63
2023/12/16 21:29:41;;;;;;;56.55;39.45;;;2.70;99.90;;;;;;5052890;28;20021;-62
2023/12/16 21:32:07;;;;;;;53.80;39.90;;;2.80;99.90;;;;;;5052853;28;20032;-62
2023/12/16 21:34:33;;;;;;;57.85;38.55;;;2.70;99.90;;;;;;5052588;28;20025;-62
2023/12/16 21:36:59;;;;;;;57.47;38.88;;;2.70;99.90;;;;;;5052758;28;20507;-69